Atlantis, Florida
Current Conditions -  °F | °C
As of 7:53 AM on Sunday 23 Nov 2014 (Local Time) from KPBI Reporting Station
Scattered Clouds Scattered Clouds  
Wind Chill: 79°   Ceiling: Unl
Heat Index: 82°   Visibility: 10mi
Dew Point: 73°   Wind: 17mph
Humidity: 82%   Direction: 140°SE
Pressure: 30.03"   Gusts: NA
Location:  26.5758°N, 80.0835°W
Report Text: KPBI 231253Z 14015KT 10SM SCT018 SCT040 26/23 A3003 RMK AO2 SLP167 T02610228
Loading
Personal Weather Stations






























Interactive Weather Map New forecast layout! Learn more

10-Day Weather Forecast

Advertisements
Track Severe Weather on mobile